sensor_id;sensor_type;location;lat;lon;timestamp;P1;durP1;ratioP1;P2;durP2;ratioP2
20324;SDS011;10320;49.482;11.256;2023-07-31T00:00:41;5.43;;;2.70;;
20324;SDS011;10320;49.482;11.256;2023-07-31T00:03:08;4.83;;;2.93;;
20324;SDS011;10320;49.482;11.256;2023-07-31T00:05:34;4.70;;;2.80;;
20324;SDS011;10320;49.482;11.256;2023-07-31T00:08:00;4.67;;;2.70;;
20324;SDS011;10320;49.482;11.256;2023-07-31T00:10:26;5.80;;;2.90;;
20324;SDS011;10320;49.482;11.256;2023-07-31T00:12:52;6.23;;;2.93;;
20324;SDS011;10320;49.482;11.256;2023-07-31T00:15:18;4.37;;;2.70;;
20324;SDS011;10320;49.482;11.256;2023-07-31T00:17:44;4.27;;;2.60;;
20324;SDS011;10320;49.482;11.256;2023-07-31T00:20:10;5.67;;;2.40;;
20324;SDS011;10320;49.482;11.256;2023-07-31T00:22:36;4.67;;;2.60;;
20324;SDS011;10320;49.482;11.256;2023-07-31T00:25:02;4.67;;;2.60;;
20324;SDS011;10320;49.482;11.256;2023-07-31T00:27:29;4.20;;;2.80;;
20324;SDS011;10320;49.482;11.256;2023-07-31T00:29:55;5.10;;;2.43;;
20324;SDS011;10320;49.482;11.256;2023-07-31T00:32:21;3.77;;;2.80;;
20324;SDS011;10320;49.482;11.256;2023-07-31T00:34:47;4.70;;;2.73;;
20324;SDS011;10320;49.482;11.256;2023-07-31T00:37:13;7.57;;;3.00;;
20324;SDS011;10320;49.482;11.256;2023-07-31T00:39:40;4.90;;;2.60;;
20324;SDS011;10320;49.482;11.256;2023-07-31T00:42:06;5.07;;;2.83;;
20324;SDS011;10320;49.482;11.256;2023-07-31T00:44:32;4.03;;;2.67;;
20324;SDS011;10320;49.482;11.256;2023-07-31T00:46:58;6.07;;;2.50;;
20324;SDS011;10320;49.482;11.256;2023-07-31T00:49:24;6.23;;;2.70;;
20324;SDS011;10320;49.482;11.256;2023-07-31T00:51:51;4.70;;;3.00;;
20324;SDS011;10320;49.482;11.256;2023-07-31T00:54:17;3.40;;;2.60;;
20324;SDS011;10320;49.482;11.256;2023-07-31T00:56:44;4.97;;;2.70;;
20324;SDS011;10320;49.482;11.256;2023-07-31T00:59:11;4.80;;;2.63;;
20324;SDS011;10320;49.482;11.256;2023-07-31T01:01:37;5.17;;;2.60;;
20324;SDS011;10320;49.482;11.256;2023-07-31T01:04:03;4.20;;;2.57;;
20324;SDS011;10320;49.482;11.256;2023-07-31T01:11:53;5.40;;;2.57;;
20324;SDS011;10320;49.482;11.256;2023-07-31T01:14:19;3.27;;;2.60;;
20324;SDS011;10320;49.482;11.256;2023-07-31T01:16:45;3.77;;;2.60;;
20324;SDS011;10320;49.482;11.256;2023-07-31T01:19:11;4.40;;;2.77;;
20324;SDS011;10320;49.482;11.256;2023-07-31T01:26:43;3.53;;;2.50;;
20324;SDS011;10320;49.482;11.256;2023-07-31T01:32:07;3.87;;;2.30;;
20324;SDS011;10320;49.482;11.256;2023-07-31T01:34:33;5.17;;;2.70;;
20324;SDS011;10320;49.482;11.256;2023-07-31T01:36:59;2.73;;;2.30;;
20324;SDS011;10320;49.482;11.256;2023-07-31T01:39:25;3.97;;;2.47;;
20324;SDS011;10320;49.482;11.256;2023-07-31T01:41:51;5.03;;;2.40;;
20324;SDS011;10320;49.482;11.256;2023-07-31T01:44:17;4.23;;;2.33;;
20324;SDS011;10320;49.482;11.256;2023-07-31T01:46:43;3.10;;;2.00;;
20324;SDS011;10320;49.482;11.256;2023-07-31T01:49:09;4.07;;;2.27;;
20324;SDS011;10320;49.482;11.256;2023-07-31T01:51:35;4.27;;;2.50;;
20324;SDS011;10320;49.482;11.256;2023-07-31T01:54:01;4.83;;;2.50;;
20324;SDS011;10320;49.482;11.256;2023-07-31T01:56:28;3.07;;;2.30;;
20324;SDS011;10320;49.482;11.256;2023-07-31T01:58:54;3.30;;;2.13;;
20324;SDS011;10320;49.482;11.256;2023-07-31T02:01:20;5.03;;;2.10;;
20324;SDS011;10320;49.482;11.256;2023-07-31T02:03:46;3.33;;;1.80;;
20324;SDS011;10320;49.482;11.256;2023-07-31T02:06:12;3.67;;;2.60;;
20324;SDS011;10320;49.482;11.256;2023-07-31T02:08:38;5.83;;;2.37;;
20324;SDS011;10320;49.482;11.256;2023-07-31T02:11:04;4.30;;;2.40;;
20324;SDS011;10320;49.482;11.256;2023-07-31T02:13:30;3.93;;;2.53;;
20324;SDS011;10320;49.482;11.256;2023-07-31T02:15:56;3.97;;;2.50;;
20324;SDS011;10320;49.482;11.256;2023-07-31T02:18:22;3.70;;;2.50;;
20324;SDS011;10320;49.482;11.256;2023-07-31T02:20:49;4.80;;;2.37;;
20324;SDS011;10320;49.482;11.256;2023-07-31T02:23:16;4.00;;;2.03;;
20324;SDS011;10320;49.482;11.256;2023-07-31T02:25:42;4.07;;;2.33;;
20324;SDS011;10320;49.482;11.256;2023-07-31T02:28:08;6.67;;;2.20;;
20324;SDS011;10320;49.482;11.256;2023-07-31T02:30:34;3.97;;;2.20;;
20324;SDS011;10320;49.482;11.256;2023-07-31T02:33:00;4.87;;;2.57;;
20324;SDS011;10320;49.482;11.256;2023-07-31T02:35:26;3.50;;;2.20;;
20324;SDS011;10320;49.482;11.256;2023-07-31T02:37:52;5.77;;;2.40;;
20324;SDS011;10320;49.482;11.256;2023-07-31T02:40:18;3.20;;;2.30;;
20324;SDS011;10320;49.482;11.256;2023-07-31T02:42:44;3.17;;;2.40;;
20324;SDS011;10320;49.482;11.256;2023-07-31T02:45:10;5.20;;;2.43;;
20324;SDS011;10320;49.482;11.256;2023-07-31T02:47:36;5.47;;;2.53;;
20324;SDS011;10320;49.482;11.256;2023-07-31T02:50:02;4.43;;;2.50;;
20324;SDS011;10320;49.482;11.256;2023-07-31T02:52:29;2.77;;;2.20;;
20324;SDS011;10320;49.482;11.256;2023-07-31T02:54:55;3.57;;;2.40;;
20324;SDS011;10320;49.482;11.256;2023-07-31T02:57:21;4.30;;;2.50;;
20324;SDS011;10320;49.482;11.256;2023-07-31T02:59:47;3.50;;;2.40;;
20324;SDS011;10320;49.482;11.256;2023-07-31T03:02:13;5.10;;;2.37;;
20324;SDS011;10320;49.482;11.256;2023-07-31T03:04:39;4.80;;;2.40;;
20324;SDS011;10320;49.482;11.256;2023-07-31T03:07:05;4.30;;;2.30;;
20324;SDS011;10320;49.482;11.256;2023-07-31T03:09:31;3.13;;;2.40;;
20324;SDS011;10320;49.482;11.256;2023-07-31T03:11:57;4.50;;;2.47;;
20324;SDS011;10320;49.482;11.256;2023-07-31T03:14:23;4.10;;;2.10;;
20324;SDS011;10320;49.482;11.256;2023-07-31T03:16:51;4.90;;;2.13;;
20324;SDS011;10320;49.482;11.256;2023-07-31T03:19:17;5.00;;;2.47;;
20324;SDS011;10320;49.482;11.256;2023-07-31T03:21:43;4.60;;;2.53;;
20324;SDS011;10320;49.482;11.256;2023-07-31T03:24:09;4.37;;;2.47;;
20324;SDS011;10320;49.482;11.256;2023-07-31T03:26:37;3.17;;;2.10;;
20324;SDS011;10320;49.482;11.256;2023-07-31T03:29:03;5.03;;;2.00;;
20324;SDS011;10320;49.482;11.256;2023-07-31T03:31:29;4.53;;;2.20;;
20324;SDS011;10320;49.482;11.256;2023-07-31T03:33:55;2.90;;;1.90;;
20324;SDS011;10320;49.482;11.256;2023-07-31T03:36:21;4.73;;;2.57;;
20324;SDS011;10320;49.482;11.256;2023-07-31T03:38:47;3.37;;;2.10;;
20324;SDS011;10320;49.482;11.256;2023-07-31T03:41:13;3.93;;;2.13;;
20324;SDS011;10320;49.482;11.256;2023-07-31T03:43:39;4.33;;;2.33;;
20324;SDS011;10320;49.482;11.256;2023-07-31T03:46:05;4.33;;;2.30;;
20324;SDS011;10320;49.482;11.256;2023-07-31T03:48:31;2.90;;;2.07;;
20324;SDS011;10320;49.482;11.256;2023-07-31T03:50:57;6.17;;;2.33;;
20324;SDS011;10320;49.482;11.256;2023-07-31T03:53:23;3.97;;;2.20;;
20324;SDS011;10320;49.482;11.256;2023-07-31T03:55:49;3.50;;;1.93;;
20324;SDS011;10320;49.482;11.256;2023-07-31T03:58:15;3.07;;;2.43;;
20324;SDS011;10320;49.482;11.256;2023-07-31T04:00:41;4.23;;;2.23;;
20324;SDS011;10320;49.482;11.256;2023-07-31T04:03:07;4.80;;;2.30;;
20324;SDS011;10320;49.482;11.256;2023-07-31T04:05:33;4.20;;;2.20;;
20324;SDS011;10320;49.482;11.256;2023-07-31T04:07:59;3.60;;;2.30;;
20324;SDS011;10320;49.482;11.256;2023-07-31T04:10:25;3.23;;;2.00;;
20324;SDS011;10320;49.482;11.256;2023-07-31T04:12:51;3.70;;;2.20;;
20324;SDS011;10320;49.482;11.256;2023-07-31T04:15:17;2.83;;;2.30;;
20324;SDS011;10320;49.482;11.256;2023-07-31T04:17:43;4.70;;;2.60;;
20324;SDS011;10320;49.482;11.256;2023-07-31T04:20:09;3.90;;;2.20;;
20324;SDS011;10320;49.482;11.256;2023-07-31T04:22:35;3.87;;;2.40;;
20324;SDS011;10320;49.482;11.256;2023-07-31T04:25:01;3.20;;;2.10;;
20324;SDS011;10320;49.482;11.256;2023-07-31T04:27:27;4.00;;;2.33;;
20324;SDS011;10320;49.482;11.256;2023-07-31T04:29:53;3.10;;;2.03;;
20324;SDS011;10320;49.482;11.256;2023-07-31T04:32:19;4.40;;;2.40;;
20324;SDS011;10320;49.482;11.256;2023-07-31T04:34:46;5.27;;;2.07;;
20324;SDS011;10320;49.482;11.256;2023-07-31T04:37:12;3.40;;;2.40;;
20324;SDS011;10320;49.482;11.256;2023-07-31T04:39:38;3.03;;;2.07;;
20324;SDS011;10320;49.482;11.256;2023-07-31T04:42:05;4.47;;;2.17;;
20324;SDS011;10320;49.482;11.256;2023-07-31T04:44:31;3.50;;;2.13;;
20324;SDS011;10320;49.482;11.256;2023-07-31T04:46:57;3.57;;;2.33;;
20324;SDS011;10320;49.482;11.256;2023-07-31T04:49:23;2.30;;;2.10;;
20324;SDS011;10320;49.482;11.256;2023-07-31T04:51:49;3.30;;;2.00;;
20324;SDS011;10320;49.482;11.256;2023-07-31T04:54:15;2.70;;;1.97;;
20324;SDS011;10320;49.482;11.256;2023-07-31T04:56:41;4.90;;;2.20;;
20324;SDS011;10320;49.482;11.256;2023-07-31T04:59:07;3.30;;;2.20;;
20324;SDS011;10320;49.482;11.256;2023-07-31T05:01:33;2.73;;;2.07;;
20324;SDS011;10320;49.482;11.256;2023-07-31T05:03:59;5.17;;;2.40;;
20324;SDS011;10320;49.482;11.256;2023-07-31T05:06:25;4.27;;;2.63;;
20324;SDS011;10320;49.482;11.256;2023-07-31T05:08:51;2.63;;;1.87;;
20324;SDS011;10320;49.482;11.256;2023-07-31T05:11:17;4.47;;;2.37;;
20324;SDS011;10320;49.482;11.256;2023-07-31T05:13:43;3.27;;;2.20;;
20324;SDS011;10320;49.482;11.256;2023-07-31T05:16:09;3.77;;;2.10;;
20324;SDS011;10320;49.482;11.256;2023-07-31T05:18:35;4.47;;;2.10;;
20324;SDS011;10320;49.482;11.256;2023-07-31T05:21:01;3.70;;;2.33;;
20324;SDS011;10320;49.482;11.256;2023-07-31T05:23:27;2.23;;;1.70;;
20324;SDS011;10320;49.482;11.256;2023-07-31T05:25:53;3.47;;;1.87;;
20324;SDS011;10320;49.482;11.256;2023-07-31T05:28:21;2.63;;;1.90;;
20324;SDS011;10320;49.482;11.256;2023-07-31T05:30:47;4.27;;;2.20;;
20324;SDS011;10320;49.482;11.256;2023-07-31T05:33:13;4.60;;;1.87;;
20324;SDS011;10320;49.482;11.256;2023-07-31T05:35:39;3.40;;;2.10;;
20324;SDS011;10320;49.482;11.256;2023-07-31T05:38:05;4.10;;;2.00;;
20324;SDS011;10320;49.482;11.256;2023-07-31T05:40:34;2.43;;;1.90;;
20324;SDS011;10320;49.482;11.256;2023-07-31T05:43:00;4.20;;;2.30;;
20324;SDS011;10320;49.482;11.256;2023-07-31T05:45:26;4.00;;;2.20;;
20324;SDS011;10320;49.482;11.256;2023-07-31T05:47:52;4.97;;;2.33;;
20324;SDS011;10320;49.482;11.256;2023-07-31T05:50:18;4.33;;;2.40;;
20324;SDS011;10320;49.482;11.256;2023-07-31T05:52:44;3.90;;;2.10;;
20324;SDS011;10320;49.482;11.256;2023-07-31T05:55:11;4.23;;;2.10;;
20324;SDS011;10320;49.482;11.256;2023-07-31T05:57:37;3.63;;;2.30;;
20324;SDS011;10320;49.482;11.256;2023-07-31T06:00:03;4.57;;;2.10;;
20324;SDS011;10320;49.482;11.256;2023-07-31T06:02:29;3.10;;;2.23;;
20324;SDS011;10320;49.482;11.256;2023-07-31T06:04:58;6.93;;;2.30;;
20324;SDS011;10320;49.482;11.256;2023-07-31T06:07:24;3.30;;;1.97;;
20324;SDS011;10320;49.482;11.256;2023-07-31T06:09:50;2.83;;;2.20;;
20324;SDS011;10320;49.482;11.256;2023-07-31T06:12:16;3.63;;;2.10;;
20324;SDS011;10320;49.482;11.256;2023-07-31T06:14:43;3.37;;;2.27;;
20324;SDS011;10320;49.482;11.256;2023-07-31T06:17:09;4.63;;;2.17;;
20324;SDS011;10320;49.482;11.256;2023-07-31T06:19:35;5.43;;;2.23;;
20324;SDS011;10320;49.482;11.256;2023-07-31T06:22:01;2.60;;;2.10;;
20324;SDS011;10320;49.482;11.256;2023-07-31T06:24:28;2.83;;;2.00;;
20324;SDS011;10320;49.482;11.256;2023-07-31T06:26:54;4.00;;;2.37;;
20324;SDS011;10320;49.482;11.256;2023-07-31T06:29:22;4.80;;;2.33;;
20324;SDS011;10320;49.482;11.256;2023-07-31T06:31:48;4.10;;;2.23;;
20324;SDS011;10320;49.482;11.256;2023-07-31T06:34:14;2.60;;;1.80;;
20324;SDS011;10320;49.482;11.256;2023-07-31T06:36:40;4.20;;;2.03;;
20324;SDS011;10320;49.482;11.256;2023-07-31T06:39:06;4.90;;;2.20;;
20324;SDS011;10320;49.482;11.256;2023-07-31T06:41:32;4.18;;;2.20;;
20324;SDS011;10320;49.482;11.256;2023-07-31T06:43:58;3.20;;;2.15;;
20324;SDS011;10320;49.482;11.256;2023-07-31T06:46:24;3.88;;;2.05;;
20324;SDS011;10320;49.482;11.256;2023-07-31T06:48:50;2.55;;;1.88;;
20324;SDS011;10320;49.482;11.256;2023-07-31T06:51:16;3.55;;;2.25;;
20324;SDS011;10320;49.482;11.256;2023-07-31T06:53:42;3.80;;;2.05;;
20324;SDS011;10320;49.482;11.256;2023-07-31T06:56:10;3.28;;;2.17;;
20324;SDS011;10320;49.482;11.256;2023-07-31T06:58:36;2.85;;;2.15;;
20324;SDS011;10320;49.482;11.256;2023-07-31T07:01:02;4.82;;;2.03;;
20324;SDS011;10320;49.482;11.256;2023-07-31T07:03:28;4.50;;;2.10;;
20324;SDS011;10320;49.482;11.256;2023-07-31T07:05:54;2.67;;;2.05;;
20324;SDS011;10320;49.482;11.256;2023-07-31T07:08:20;4.22;;;2.13;;
20324;SDS011;10320;49.482;11.256;2023-07-31T07:10:47;5.80;;;2.05;;
20324;SDS011;10320;49.482;11.256;2023-07-31T07:13:13;3.42;;;2.08;;
20324;SDS011;10320;49.482;11.256;2023-07-31T07:15:39;6.28;;;2.92;;
20324;SDS011;10320;49.482;11.256;2023-07-31T07:18:05;4.70;;;2.30;;
20324;SDS011;10320;49.482;11.256;2023-07-31T07:20:31;5.63;;;2.38;;
20324;SDS011;10320;49.482;11.256;2023-07-31T07:22:57;5.07;;;2.33;;
20324;SDS011;10320;49.482;11.256;2023-07-31T07:25:23;3.90;;;2.10;;
20324;SDS011;10320;49.482;11.256;2023-07-31T07:27:49;5.10;;;2.40;;
20324;SDS011;10320;49.482;11.256;2023-07-31T07:30:16;4.63;;;2.47;;
20324;SDS011;10320;49.482;11.256;2023-07-31T07:32:42;3.25;;;2.58;;
20324;SDS011;10320;49.482;11.256;2023-07-31T07:35:08;3.30;;;2.30;;
20324;SDS011;10320;49.482;11.256;2023-07-31T07:37:34;4.07;;;2.08;;
20324;SDS011;10320;49.482;11.256;2023-07-31T07:40:00;5.05;;;2.30;;
20324;SDS011;10320;49.482;11.256;2023-07-31T07:42:26;3.88;;;2.13;;
20324;SDS011;10320;49.482;11.256;2023-07-31T07:44:52;4.38;;;2.22;;
20324;SDS011;10320;49.482;11.256;2023-07-31T07:47:18;5.72;;;2.47;;
20324;SDS011;10320;49.482;11.256;2023-07-31T07:49:44;4.25;;;2.55;;
20324;SDS011;10320;49.482;11.256;2023-07-31T07:52:10;3.42;;;2.40;;
20324;SDS011;10320;49.482;11.256;2023-07-31T07:54:36;4.57;;;2.17;;
20324;SDS011;10320;49.482;11.256;2023-07-31T07:57:02;4.45;;;2.65;;
20324;SDS011;10320;49.482;11.256;2023-07-31T07:59:28;3.33;;;2.08;;
20324;SDS011;10320;49.482;11.256;2023-07-31T08:01:54;4.07;;;2.22;;
20324;SDS011;10320;49.482;11.256;2023-07-31T08:04:22;6.30;;;2.33;;
20324;SDS011;10320;49.482;11.256;2023-07-31T08:06:48;3.55;;;2.35;;
20324;SDS011;10320;49.482;11.256;2023-07-31T08:09:14;3.95;;;2.55;;
20324;SDS011;10320;49.482;11.256;2023-07-31T08:11:40;5.00;;;2.60;;
20324;SDS011;10320;49.482;11.256;2023-07-31T08:14:06;4.80;;;3.13;;
20324;SDS011;10320;49.482;11.256;2023-07-31T08:16:32;4.25;;;2.60;;
20324;SDS011;10320;49.482;11.256;2023-07-31T08:18:58;5.88;;;2.60;;
20324;SDS011;10320;49.482;11.256;2023-07-31T08:21:24;4.72;;;2.50;;
20324;SDS011;10320;49.482;11.256;2023-07-31T08:23:50;4.15;;;2.65;;
20324;SDS011;10320;49.482;11.256;2023-07-31T08:26:17;5.00;;;2.53;;
20324;SDS011;10320;49.482;11.256;2023-07-31T08:28:43;3.40;;;2.30;;
20324;SDS011;10320;49.482;11.256;2023-07-31T08:31:09;4.35;;;2.40;;
20324;SDS011;10320;49.482;11.256;2023-07-31T08:33:35;5.63;;;2.40;;
20324;SDS011;10320;49.482;11.256;2023-07-31T08:36:02;3.22;;;2.33;;
20324;SDS011;10320;49.482;11.256;2023-07-31T08:38:28;2.70;;;1.95;;
20324;SDS011;10320;49.482;11.256;2023-07-31T08:40:56;3.50;;;2.45;;
20324;SDS011;10320;49.482;11.256;2023-07-31T08:43:22;3.85;;;2.22;;
20324;SDS011;10320;49.482;11.256;2023-07-31T08:45:50;2.75;;;2.25;;
20324;SDS011;10320;49.482;11.256;2023-07-31T08:48:17;5.90;;;2.90;;
20324;SDS011;10320;49.482;11.256;2023-07-31T08:50:43;7.18;;;2.70;;
20324;SDS011;10320;49.482;11.256;2023-07-31T08:53:09;5.28;;;2.40;;
20324;SDS011;10320;49.482;11.256;2023-07-31T08:55:36;5.15;;;2.45;;
20324;SDS011;10320;49.482;11.256;2023-07-31T08:58:03;5.93;;;2.67;;
20324;SDS011;10320;49.482;11.256;2023-07-31T09:00:30;4.40;;;2.50;;
20324;SDS011;10320;49.482;11.256;2023-07-31T09:05:28;4.40;;;2.45;;
20324;SDS011;10320;49.482;11.256;2023-07-31T09:07:54;4.75;;;2.60;;
20324;SDS011;10320;49.482;11.256;2023-07-31T09:10:21;5.63;;;2.63;;
20324;SDS011;10320;49.482;11.256;2023-07-31T09:12:47;3.65;;;2.22;;
20324;SDS011;10320;49.482;11.256;2023-07-31T09:15:14;4.35;;;2.25;;
20324;SDS011;10320;49.482;11.256;2023-07-31T09:17:40;4.07;;;2.40;;
20324;SDS011;10320;49.482;11.256;2023-07-31T09:20:14;3.58;;;2.30;;
20324;SDS011;10320;49.482;11.256;2023-07-31T09:22:40;4.07;;;2.28;;
20324;SDS011;10320;49.482;11.256;2023-07-31T09:25:14;4.35;;;2.55;;
20324;SDS011;10320;49.482;11.256;2023-07-31T09:27:59;3.40;;;2.55;;
20324;SDS011;10320;49.482;11.256;2023-07-31T09:30:26;5.18;;;2.60;;
20324;SDS011;10320;49.482;11.256;2023-07-31T09:32:59;4.53;;;2.30;;
20324;SDS011;10320;49.482;11.256;2023-07-31T09:35:32;4.85;;;2.22;;
20324;SDS011;10320;49.482;11.256;2023-07-31T09:37:59;3.50;;;2.30;;
20324;SDS011;10320;49.482;11.256;2023-07-31T09:40:29;2.95;;;2.30;;
20324;SDS011;10320;49.482;11.256;2023-07-31T09:42:56;5.40;;;2.38;;
20324;SDS011;10320;49.482;11.256;2023-07-31T09:45:23;2.55;;;2.13;;
20324;SDS011;10320;49.482;11.256;2023-07-31T09:47:49;4.38;;;2.33;;
20324;SDS011;10320;49.482;11.256;2023-07-31T09:50:15;4.40;;;2.22;;
20324;SDS011;10320;49.482;11.256;2023-07-31T09:52:42;4.80;;;2.42;;
20324;SDS011;10320;49.482;11.256;2023-07-31T09:55:08;5.10;;;2.30;;
20324;SDS011;10320;49.482;11.256;2023-07-31T09:57:36;3.10;;;2.15;;
20324;SDS011;10320;49.482;11.256;2023-07-31T10:00:04;4.03;;;2.20;;
20324;SDS011;10320;49.482;11.256;2023-07-31T10:02:31;5.13;;;2.50;;
20324;SDS011;10320;49.482;11.256;2023-07-31T10:04:57;5.60;;;2.55;;
20324;SDS011;10320;49.482;11.256;2023-07-31T10:07:25;3.30;;;2.30;;
20324;SDS011;10320;49.482;11.256;2023-07-31T10:09:53;3.22;;;2.20;;
20324;SDS011;10320;49.482;11.256;2023-07-31T10:12:19;3.50;;;2.42;;
20324;SDS011;10320;49.482;11.256;2023-07-31T10:14:48;2.63;;;2.10;;
20324;SDS011;10320;49.482;11.256;2023-07-31T10:17:14;4.00;;;2.45;;
20324;SDS011;10320;49.482;11.256;2023-07-31T10:19:41;3.05;;;2.25;;
20324;SDS011;10320;49.482;11.256;2023-07-31T10:22:07;3.58;;;2.70;;
20324;SDS011;10320;49.482;11.256;2023-07-31T10:24:33;2.75;;;2.20;;
20324;SDS011;10320;49.482;11.256;2023-07-31T10:27:00;4.18;;;2.20;;
20324;SDS011;10320;49.482;11.256;2023-07-31T10:29:28;4.03;;;2.30;;
20324;SDS011;10320;49.482;11.256;2023-07-31T10:31:55;4.70;;;2.40;;
20324;SDS011;10320;49.482;11.256;2023-07-31T10:34:22;3.65;;;2.58;;
20324;SDS011;10320;49.482;11.256;2023-07-31T10:36:48;2.67;;;2.10;;
20324;SDS011;10320;49.482;11.256;2023-07-31T10:39:33;4.00;;;2.70;;
20324;SDS011;10320;49.482;11.256;2023-07-31T10:42:09;4.47;;;2.42;;
20324;SDS011;10320;49.482;11.256;2023-07-31T10:44:35;3.75;;;2.40;;
20324;SDS011;10320;49.482;11.256;2023-07-31T10:47:01;4.72;;;2.53;;
20324;SDS011;10320;49.482;11.256;2023-07-31T10:49:28;2.63;;;2.28;;
20324;SDS011;10320;49.482;11.256;2023-07-31T10:51:56;3.03;;;2.45;;
20324;SDS011;10320;49.482;11.256;2023-07-31T10:54:22;4.60;;;2.60;;
20324;SDS011;10320;49.482;11.256;2023-07-31T10:56:52;3.13;;;2.30;;
20324;SDS011;10320;49.482;11.256;2023-07-31T10:59:18;3.45;;;2.38;;
20324;SDS011;10320;49.482;11.256;2023-07-31T11:01:52;4.32;;;2.60;;
20324;SDS011;10320;49.482;11.256;2023-07-31T11:04:22;3.92;;;2.58;;
20324;SDS011;10320;49.482;11.256;2023-07-31T11:06:59;4.82;;;2.50;;
20324;SDS011;10320;49.482;11.256;2023-07-31T11:09:29;2.90;;;2.17;;
20324;SDS011;10320;49.482;11.256;2023-07-31T11:11:56;3.20;;;2.33;;
20324;SDS011;10320;49.482;11.256;2023-07-31T11:14:22;5.38;;;2.42;;
20324;SDS011;10320;49.482;11.256;2023-07-31T11:16:51;3.78;;;2.63;;
20324;SDS011;10320;49.482;11.256;2023-07-31T11:19:23;5.38;;;2.10;;
20324;SDS011;10320;49.482;11.256;2023-07-31T11:21:53;3.63;;;2.38;;
20324;SDS011;10320;49.482;11.256;2023-07-31T11:24:19;4.60;;;2.75;;
20324;SDS011;10320;49.482;11.256;2023-07-31T11:26:51;2.67;;;2.30;;
20324;SDS011;10320;49.482;11.256;2023-07-31T11:29:21;4.05;;;2.38;;
20324;SDS011;10320;49.482;11.256;2023-07-31T11:31:53;2.67;;;2.10;;
20324;SDS011;10320;49.482;11.256;2023-07-31T11:34:19;3.95;;;2.70;;
20324;SDS011;10320;49.482;11.256;2023-07-31T11:36:52;2.90;;;2.30;;
20324;SDS011;10320;49.482;11.256;2023-07-31T11:39:19;2.60;;;2.10;;
20324;SDS011;10320;49.482;11.256;2023-07-31T11:41:45;4.13;;;2.88;;
20324;SDS011;10320;49.482;11.256;2023-07-31T11:44:11;3.67;;;2.35;;
20324;SDS011;10320;49.482;11.256;2023-07-31T11:46:37;4.63;;;2.90;;
20324;SDS011;10320;49.482;11.256;2023-07-31T11:49:04;3.55;;;2.25;;
20324;SDS011;10320;49.482;11.256;2023-07-31T11:51:31;4.60;;;2.70;;
20324;SDS011;10320;49.482;11.256;2023-07-31T11:53:57;5.15;;;2.80;;
20324;SDS011;10320;49.482;11.256;2023-07-31T11:56:25;3.65;;;2.40;;
20324;SDS011;10320;49.482;11.256;2023-07-31T11:58:57;4.13;;;2.55;;
20324;SDS011;10320;49.482;11.256;2023-07-31T12:01:23;5.43;;;2.47;;
20324;SDS011;10320;49.482;11.256;2023-07-31T12:03:50;4.80;;;2.50;;
20324;SDS011;10320;49.482;11.256;2023-07-31T12:06:16;2.83;;;2.40;;
20324;SDS011;10320;49.482;11.256;2023-07-31T12:08:42;4.82;;;2.58;;
20324;SDS011;10320;49.482;11.256;2023-07-31T12:11:09;3.28;;;2.47;;
20324;SDS011;10320;49.482;11.256;2023-07-31T12:13:35;3.10;;;2.40;;
20324;SDS011;10320;49.482;11.256;2023-07-31T12:16:02;3.28;;;2.67;;
20324;SDS011;10320;49.482;11.256;2023-07-31T12:18:29;6.47;;;2.70;;
20324;SDS011;10320;49.482;11.256;2023-07-31T12:20:57;3.45;;;2.47;;
20324;SDS011;10320;49.482;11.256;2023-07-31T12:23:26;3.90;;;2.60;;
20324;SDS011;10320;49.482;11.256;2023-07-31T12:26:33;4.45;;;2.30;;
20324;SDS011;10320;49.482;11.256;2023-07-31T12:28:50;4.43;;;2.95;;
20324;SDS011;10320;49.482;11.256;2023-07-31T12:31:20;2.72;;;2.45;;
20324;SDS011;10320;49.482;11.256;2023-07-31T12:33:48;3.55;;;2.28;;
20324;SDS011;10320;49.482;11.256;2023-07-31T12:36:15;4.00;;;2.70;;
20324;SDS011;10320;49.482;11.256;2023-07-31T12:38:42;4.80;;;2.90;;
20324;SDS011;10320;49.482;11.256;2023-07-31T12:41:08;3.45;;;2.67;;
20324;SDS011;10320;49.482;11.256;2023-07-31T12:43:34;4.15;;;2.65;;
20324;SDS011;10320;49.482;11.256;2023-07-31T12:46:01;3.95;;;2.95;;
20324;SDS011;10320;49.482;11.256;2023-07-31T12:48:27;4.45;;;2.75;;
20324;SDS011;10320;49.482;11.256;2023-07-31T12:50:53;4.65;;;2.88;;
20324;SDS011;10320;49.482;11.256;2023-07-31T12:53:19;4.55;;;2.90;;
20324;SDS011;10320;49.482;11.256;2023-07-31T12:55:45;2.85;;;2.50;;
20324;SDS011;10320;49.482;11.256;2023-07-31T12:58:11;3.67;;;2.80;;
20324;SDS011;10320;49.482;11.256;2023-07-31T13:00:37;3.80;;;2.90;;
20324;SDS011;10320;49.482;11.256;2023-07-31T13:03:03;4.60;;;2.75;;
20324;SDS011;10320;49.482;11.256;2023-07-31T13:05:29;3.80;;;2.67;;
20324;SDS011;10320;49.482;11.256;2023-07-31T13:07:55;3.67;;;2.83;;
20324;SDS011;10320;49.482;11.256;2023-07-31T13:10:24;3.78;;;2.92;;
20324;SDS011;10320;49.482;11.256;2023-07-31T13:12:52;4.22;;;3.25;;
20324;SDS011;10320;49.482;11.256;2023-07-31T13:15:18;4.25;;;2.97;;
20324;SDS011;10320;49.482;11.256;2023-07-31T13:17:44;4.50;;;3.20;;
20324;SDS011;10320;49.482;11.256;2023-07-31T13:20:10;5.00;;;3.00;;
20324;SDS011;10320;49.482;11.256;2023-07-31T13:22:36;4.53;;;3.17;;
20324;SDS011;10320;49.482;11.256;2023-07-31T13:25:02;5.30;;;3.72;;
20324;SDS011;10320;49.482;11.256;2023-07-31T13:27:28;4.75;;;3.50;;
20324;SDS011;10320;49.482;11.256;2023-07-31T13:29:54;4.13;;;3.17;;
20324;SDS011;10320;49.482;11.256;2023-07-31T13:32:20;6.13;;;3.40;;
20324;SDS011;10320;49.482;11.256;2023-07-31T13:34:47;3.63;;;3.00;;
20324;SDS011;10320;49.482;11.256;2023-07-31T13:37:13;4.22;;;3.05;;
20324;SDS011;10320;49.482;11.256;2023-07-31T13:39:40;3.90;;;2.75;;
20324;SDS011;10320;49.482;11.256;2023-07-31T13:42:06;4.03;;;2.80;;
20324;SDS011;10320;49.482;11.256;2023-07-31T13:44:33;3.92;;;2.85;;
20324;SDS011;10320;49.482;11.256;2023-07-31T13:47:00;4.65;;;3.15;;
20324;SDS011;10320;49.482;11.256;2023-07-31T13:49:26;3.75;;;2.90;;
20324;SDS011;10320;49.482;11.256;2023-07-31T13:51:52;4.72;;;2.67;;
20324;SDS011;10320;49.482;11.256;2023-07-31T13:54:18;4.25;;;2.50;;
20324;SDS011;10320;49.482;11.256;2023-07-31T13:56:44;3.50;;;2.70;;
20324;SDS011;10320;49.482;11.256;2023-07-31T13:59:10;3.17;;;2.88;;
20324;SDS011;10320;49.482;11.256;2023-07-31T14:01:37;4.70;;;2.80;;
20324;SDS011;10320;49.482;11.256;2023-07-31T14:04:03;3.78;;;2.70;;
20324;SDS011;10320;49.482;11.256;2023-07-31T14:06:29;5.28;;;2.97;;
20324;SDS011;10320;49.482;11.256;2023-07-31T14:08:55;5.60;;;3.28;;
20324;SDS011;10320;49.482;11.256;2023-07-31T14:11:21;4.88;;;2.70;;
20324;SDS011;10320;49.482;11.256;2023-07-31T14:13:47;4.93;;;2.83;;
20324;SDS011;10320;49.482;11.256;2023-07-31T14:16:14;3.55;;;3.03;;
20324;SDS011;10320;49.482;11.256;2023-07-31T14:18:40;3.35;;;2.65;;
20324;SDS011;10320;49.482;11.256;2023-07-31T14:21:06;4.20;;;2.70;;
20324;SDS011;10320;49.482;11.256;2023-07-31T14:23:32;4.43;;;3.03;;
20324;SDS011;10320;49.482;11.256;2023-07-31T14:25:58;3.00;;;2.70;;
20324;SDS011;10320;49.482;11.256;2023-07-31T14:28:24;3.35;;;2.80;;
20324;SDS011;10320;49.482;11.256;2023-07-31T14:30:50;4.10;;;2.60;;
20324;SDS011;10320;49.482;11.256;2023-07-31T14:33:16;3.60;;;2.60;;
20324;SDS011;10320;49.482;11.256;2023-07-31T14:35:42;3.78;;;2.80;;
20324;SDS011;10320;49.482;11.256;2023-07-31T14:38:08;3.00;;;2.65;;
20324;SDS011;10320;49.482;11.256;2023-07-31T14:40:34;4.93;;;3.38;;
20324;SDS011;10320;49.482;11.256;2023-07-31T14:43:01;4.03;;;2.83;;
20324;SDS011;10320;49.482;11.256;2023-07-31T14:45:27;3.53;;;2.83;;